Time;durP1;ratioP1;P1;durP2;ratioP2;P2;SDS_P1;SDS_P2;PMS_P1;PMS_P2;Temp;Humidity;BMP_temperature;BMP_pressure;BME280_temperature;BME280_humidity;BME280_pressure;Samples;Min_cycle;Max_cycle;Signal;HPM_P1;HPM_P2
2023/06/26 02:22:01;;;;;;;7.80;4.68;;;;;;;;;;6309087;22;20046;-96
2023/06/26 02:24:29;;;;;;;8.15;4.25;;;;;;;;;;6271112;22;20004;-95
2023/06/26 02:27:00;;;;;;;7.43;4.80;;;;;;;;;;6298490;22;20010;-94
2023/06/26 02:29:26;;;;;;;7.60;4.35;;;;;;;;;;6273159;22;20011;-94
2023/06/26 02:31:55;;;;;;;6.80;4.88;;;;;;;;;;6274673;22;20011;-95
2023/06/26 02:37:12;;;;;;;7.25;4.30;;;;;;;;;;6294537;22;20014;-96
2023/06/26 02:39:39;;;;;;;6.88;3.92;;;;;;;;;;6270121;22;20015;-94
2023/06/26 02:45:09;;;;;;;7.22;4.43;;;;;;;;;;6297868;22;20030;-95
2023/06/26 02:47:39;;;;;;;7.93;4.60;;;;;;;;;;6268451;22;20018;-94
2023/06/26 02:50:06;;;;;;;7.32;4.90;;;;;;;;;;6271394;22;20003;-94
2023/06/26 02:52:37;;;;;;;5.32;3.88;;;;;;;;;;6269702;22;20004;-96
2023/06/26 02:55:18;;;;;;;9.05;5.30;;;;;;;;;;6297564;22;20004;-95
2023/06/26 02:57:45;;;;;;;7.18;4.97;;;;;;;;;;6270632;22;20008;-95
2023/06/26 03:00:21;;;;;;;8.45;4.72;;;;;;;;;;6297870;22;20030;-93
2023/06/26 03:02:49;;;;;;;7.22;4.88;;;;;;;;;;6271041;22;20015;-96
2023/06/26 05:48:07;;;;;;;4.60;2.92;;;;;;;;;;6311811;22;20020;-93
2023/06/26 05:53:33;;;;;;;;;;;;;;;;;;;;;
2023/06/26 05:59:04;;;;;;;4.47;2.78;;;;;;;;;;6321264;22;20135;-94
2023/06/26 06:14:36;;;;;;;3.72;2.88;;;;;;;;;;6171190;23;20005;-93
2023/06/26 06:17:38;;;;;;;4.07;2.58;;;;;;;;;;6222260;23;20012;-95
2023/06/26 06:20:38;;;;;;;8.43;2.53;;;;;;;;;;6218153;23;20004;-95
2023/06/26 06:23:23;;;;;;;4.35;2.80;;;;;;;;;;6225895;23;20008;-95
2023/06/26 18:10:42;;;;;;;5.05;3.70;;;;;;;;;;6303748;22;20103;-73
2023/06/26 19:11:28;;;;;;;7.95;4.88;;;;;;;;;;6311141;22;20032;-91
2023/06/26 19:13:57;;;;;;;13.27;5.07;;;;;;;;;;6281795;22;20762;-91
2023/06/26 19:16:29;;;;;;;6.47;4.80;;;;;;;;;;6282211;22;20003;-92
2023/06/26 19:18:57;;;;;;;6.13;4.38;;;;;;;;;;6282260;22;20090;-91
2023/06/26 19:21:28;;;;;;;5.85;4.50;;;;;;;;;;6282737;22;20021;-91
2023/06/26 19:23:54;;;;;;;7.22;4.63;;;;;;;;;;6281041;22;20008;-92
2023/06/26 19:26:23;;;;;;;7.15;5.03;;;;;;;;;;6282300;22;20003;-91
2023/06/26 19:28:50;;;;;;;9.73;6.82;;;;;;;;;;6281636;22;20141;-92
2023/06/26 19:31:16;;;;;;;9.63;7.57;;;;;;;;;;6282344;22;20007;-91
2023/06/26 19:33:42;;;;;;;10.55;8.43;;;;;;;;;;6282809;22;20003;-92
2023/06/26 19:36:08;;;;;;;9.90;8.85;;;;;;;;;;6282576;22;20033;-91
2023/06/26 19:38:34;;;;;;;11.20;8.63;;;;;;;;;;6282384;22;20003;-92
2023/06/26 19:41:00;;;;;;;15.68;10.80;;;;;;;;;;6282535;22;20015;-92
2023/06/26 19:43:26;;;;;;;13.77;10.00;;;;;;;;;;6282076;22;20007;-91
2023/06/26 19:45:52;;;;;;;12.40;9.90;;;;;;;;;;6282465;22;20008;-92
2023/06/26 19:48:19;;;;;;;12.88;9.45;;;;;;;;;;6281577;22;20053;-91
2023/06/26 19:50:45;;;;;;;13.60;8.07;;;;;;;;;;6281832;22;20007;-91
2023/06/26 19:53:11;;;;;;;11.90;7.28;;;;;;;;;;6281582;22;20455;-91
2023/06/26 19:55:37;;;;;;;8.68;6.63;;;;;;;;;;6281741;22;19999;-91
2023/06/26 19:58:03;;;;;;;12.73;8.88;;;;;;;;;;6282911;22;20038;-91
2023/06/26 20:00:31;;;;;;;15.10;9.30;;;;;;;;;;6282057;22;20004;-91
2023/06/26 20:02:57;;;;;;;11.43;8.88;;;;;;;;;;6282203;22;20371;-93
2023/06/26 20:05:23;;;;;;;12.48;9.60;;;;;;;;;;6281539;22;20010;-90
2023/06/26 20:07:49;;;;;;;11.50;9.80;;;;;;;;;;6281781;22;20007;-91
2023/06/26 20:10:18;;;;;;;12.00;8.73;;;;;;;;;;6281281;22;20008;-90
2023/06/26 20:12:47;;;;;;;10.80;8.60;;;;;;;;;;6281258;22;20015;-91
2023/06/26 20:15:13;;;;;;;10.10;7.15;;;;;;;;;;6282045;22;20026;-90
2023/06/26 20:17:41;;;;;;;8.95;6.30;;;;;;;;;;6281793;22;20057;-92
2023/06/26 20:23:25;;;;;;;8.93;6.47;;;;;;;;;;6315161;22;20015;-93
2023/06/26 20:35:25;;;;;;;6.40;4.60;;;;;;;;;;6354577;22;20410;-93
2023/06/26 20:38:22;;;;;;;7.75;5.00;;;;;;;;;;6300644;22;20026;-90
2023/06/26 20:44:43;;;;;;;7.43;5.47;;;;;;;;;;6235409;23;20019;-90
2023/06/26 20:47:57;;;;;;;8.48;5.45;;;;;;;;;;6144627;23;20021;-91
2023/06/26 20:50:50;;;;;;;7.85;5.70;;;;;;;;;;6120630;23;20014;-94
2023/06/26 20:53:45;;;;;;;6.70;5.22;;;;;;;;;;6113398;23;20013;-89
2023/06/26 20:56:13;;;;;;;7.93;5.38;;;;;;;;;;6129444;23;20006;-93
2023/06/26 21:05:02;;;;;;;8.23;5.22;;;;;;;;;;6349761;22;20061;-92
2023/06/26 21:10:35;;;;;;;9.15;5.63;;;;;;;;;;6312834;22;20065;-91
2023/06/26 21:55:00;;;;;;;11.00;5.35;;;;;;;;;;6309272;22;20049;-93
2023/06/26 22:40:37;;;;;;;9.10;5.43;;;;;;;;;;6276634;22;20149;-93
2023/06/26 23:27:22;;;;;;;9.05;5.90;;;;;;;;;;6290451;22;20322;31
